createdAt,value
2024-03-12T00:01:56.574Z,35.37
2024-03-12T00:06:34.511Z,36.33
2024-03-12T00:11:12.588Z,38.60
2024-03-12T00:15:50.604Z,39.23
2024-03-12T00:20:37.519Z,36.23
2024-03-12T00:25:16.617Z,36.23
2024-03-12T00:29:54.496Z,42.43
2024-03-12T00:34:33.551Z,36.93
2024-03-12T00:39:18.463Z,50.77
2024-03-12T00:43:59.562Z,46.77
2024-03-12T00:48:31.446Z,51.70
2024-03-12T00:53:03.571Z,55.63
2024-03-12T00:57:46.582Z,46.93
2024-03-12T01:02:27.610Z,47.40
2024-03-12T01:07:06.594Z,54.10
2024-03-12T01:11:45.471Z,49.03
2024-03-12T01:16:26.474Z,47.40
2024-03-12T01:21:05.487Z,47.97
2024-03-12T01:25:44.497Z,48.23
2024-03-12T01:30:24.512Z,53.97
2024-03-12T01:35:06.515Z,50.90
2024-03-12T01:39:46.514Z,52.20
2024-03-12T01:44:24.565Z,47.63
2024-03-12T01:49:03.486Z,52.40
2024-03-12T01:53:46.722Z,42.73
2024-03-12T01:58:25.497Z,48.60
2024-03-12T02:03:04.474Z,52.83
2024-03-12T02:07:43.496Z,53.47
2024-03-12T02:12:18.499Z,53.27
2024-03-12T02:16:58.490Z,57.27
2024-03-12T02:21:37.551Z,56.00
2024-03-12T02:26:19.532Z,54.73
2024-03-12T02:30:57.585Z,52.70
2024-03-12T02:35:36.095Z,56.40
2024-03-12T02:40:17.360Z,53.67
2024-03-12T02:44:59.466Z,54.47
2024-03-12T02:49:37.472Z,60.73
2024-03-12T02:54:15.526Z,56.70
2024-03-12T02:58:53.474Z,58.63
2024-03-12T03:03:35.545Z,52.37
2024-03-12T03:08:13.514Z,52.73
2024-03-12T03:12:51.643Z,56.60
2024-03-12T03:17:30.514Z,68.10
2024-03-12T03:22:12.599Z,75.23
2024-03-12T03:26:50.471Z,67.30
2024-03-12T03:31:29.527Z,67.23
2024-03-12T03:36:09.512Z,63.37
2024-03-12T03:40:50.513Z,63.70
2024-03-12T03:45:29.463Z,67.80
2024-03-12T03:50:07.484Z,71.27
2024-03-12T03:54:45.470Z,78.43
2024-03-12T03:59:27.466Z,85.70
2024-03-12T04:04:06.617Z,95.97
2024-03-12T04:08:44.515Z,81.57
2024-03-12T04:13:23.481Z,83.37
2024-03-12T04:18:06.066Z,108.73
2024-03-12T04:22:44.605Z,80.03
2024-03-12T04:27:23.476Z,105.70
2024-03-12T04:32:03.585Z,112.00
2024-03-12T04:36:44.494Z,104.73
2024-03-12T04:41:22.468Z,97.10
2024-03-12T04:46:00.500Z,95.77
2024-03-12T04:50:38.520Z,99.57
2024-03-12T04:55:20.491Z,101.77
2024-03-12T04:59:58.460Z,116.13
2024-03-12T05:04:36.590Z,108.03
2024-03-12T05:09:14.563Z,108.93
2024-03-12T05:13:56.697Z,109.73
2024-03-12T05:18:35.520Z,95.30
2024-03-12T05:23:18.465Z,77.40
2024-03-12T05:27:56.476Z,91.63
2024-03-12T05:32:37.619Z,98.77
2024-03-12T05:37:23.497Z,86.83
2024-03-12T05:42:14.460Z,88.13
2024-03-12T05:47:12.470Z,87.17
2024-03-12T05:51:47.481Z,83.60
2024-03-12T05:56:27.538Z,85.23
2024-03-12T06:01:06.541Z,86.60
2024-03-12T06:05:44.551Z,91.87
2024-03-12T06:10:27.487Z,91.20
2024-03-12T06:15:06.435Z,98.77
2024-03-12T06:19:44.588Z,97.80
2024-03-12T06:24:24.749Z,94.77
2024-03-12T06:29:06.441Z,106.87
2024-03-12T06:33:47.474Z,100.67
2024-03-12T06:38:28.460Z,84.43
2024-03-12T06:43:00.466Z,87.10
2024-03-12T06:47:46.487Z,82.37
2024-03-12T06:52:24.457Z,71.57
2024-03-12T06:57:03.427Z,72.83
2024-03-12T07:01:48.757Z,65.80
2024-03-12T07:06:32.427Z,67.20
2024-03-12T07:11:11.460Z,71.13
2024-03-12T07:15:56.511Z,68.43
2024-03-12T07:20:37.416Z,64.83
2024-03-12T07:25:18.462Z,54.77
2024-03-12T07:29:51.244Z,53.13
2024-03-12T07:34:23.495Z,47.80
2024-03-12T07:39:04.626Z,44.73
2024-03-12T07:43:45.413Z,39.33
2024-03-12T07:48:24.490Z,35.57
2024-03-12T07:52:56.483Z,36.13
2024-03-12T07:57:38.427Z,36.33
2024-03-12T08:02:24.433Z,27.03
2024-03-12T08:07:06.589Z,33.73
2024-03-12T08:11:46.498Z,30.70
2024-03-12T08:16:25.412Z,29.67
2024-03-12T08:21:06.443Z,28.47
2024-03-12T08:25:55.085Z,33.57
2024-03-12T08:30:37.462Z,29.47
2024-03-12T08:35:16.416Z,33.93
2024-03-12T08:39:57.412Z,33.43
2024-03-12T08:44:36.411Z,36.60
2024-03-12T08:49:18.709Z,34.80
2024-03-12T08:53:57.405Z,32.60
2024-03-12T08:58:40.650Z,34.13
2024-03-12T09:03:19.518Z,28.67
2024-03-12T09:07:57.478Z,33.50
2024-03-12T09:12:38.418Z,36.97
2024-03-12T09:17:20.448Z,30.77
2024-03-12T09:21:53.414Z,28.57
2024-03-12T09:26:31.514Z,24.57
2024-03-12T09:31:09.492Z,28.80
2024-03-12T09:35:51.455Z,28.63
2024-03-12T09:40:29.426Z,24.30
2024-03-12T09:45:10.690Z,28.70
2024-03-12T09:49:51.404Z,24.13
2024-03-12T09:54:35.465Z,26.77
2024-03-12T09:59:15.636Z,23.43
2024-03-12T10:03:54.506Z,24.27
2024-03-12T10:08:36.408Z,26.67
2024-03-12T10:13:22.399Z,23.13
2024-03-12T10:18:15.400Z,21.40
2024-03-12T10:22:54.404Z,26.30
2024-03-12T10:27:36.429Z,25.00
2024-03-12T10:32:36.726Z,27.80
2024-03-12T10:37:15.592Z,29.67
2024-03-12T10:41:53.438Z,28.57
2024-03-12T10:46:32.396Z,31.33
2024-03-12T10:51:14.704Z,29.70
2024-03-12T10:55:48.395Z,27.10
2024-03-12T11:00:28.406Z,28.07
2024-03-12T11:05:07.473Z,30.57
2024-03-12T11:09:49.438Z,29.43
2024-03-12T11:14:28.396Z,27.37
2024-03-12T11:19:08.418Z,34.77
2024-03-12T11:23:47.716Z,31.90
2024-03-12T11:28:33.436Z,30.03
2024-03-12T11:33:14.395Z,33.33
2024-03-12T11:37:54.392Z,38.97
2024-03-12T11:42:32.413Z,30.20
2024-03-12T11:47:14.377Z,30.47
2024-03-12T11:52:10.442Z,28.97
2024-03-12T11:56:48.390Z,32.10
2024-03-12T12:01:31.544Z,29.80
2024-03-12T12:06:14.386Z,26.10
2024-03-12T12:10:52.428Z,32.43
2024-03-12T12:15:30.535Z,29.77
2024-03-12T12:20:26.388Z,27.30
2024-03-12T12:25:01.405Z,24.33
2024-03-12T12:29:41.407Z,29.90
2024-03-12T12:34:20.370Z,30.93
2024-03-12T12:39:03.510Z,29.77
2024-03-12T12:43:50.387Z,33.93
2024-03-12T12:48:30.380Z,32.93
2024-03-12T12:53:13.387Z,38.50
2024-03-12T12:57:52.423Z,29.17
2024-03-12T13:02:34.390Z,31.10
2024-03-12T13:07:12.456Z,34.53
2024-03-12T13:11:51.383Z,34.97
2024-03-12T13:16:32.376Z,33.50
2024-03-12T13:21:15.411Z,30.30
2024-03-12T13:25:54.408Z,31.33
2024-03-12T13:30:33.413Z,32.53
2024-03-12T13:35:11.404Z,30.80
2024-03-12T13:39:53.503Z,31.67
2024-03-12T13:44:32.392Z,31.60
2024-03-12T13:49:27.444Z,34.57
2024-03-12T13:54:05.373Z,36.70
2024-03-12T13:58:48.748Z,43.03
2024-03-12T14:03:28.495Z,57.43
2024-03-12T14:08:06.373Z,49.43
2024-03-12T14:12:38.816Z,44.00
2024-03-12T14:17:13.346Z,44.83
2024-03-12T14:21:51.392Z,46.87
2024-03-12T14:26:29.380Z,35.93
2024-03-12T14:31:07.382Z,37.33
2024-03-12T14:35:48.350Z,33.00
2024-03-12T14:40:27.856Z,32.43
2024-03-12T14:45:05.363Z,34.67
2024-03-12T14:49:44.410Z,35.73
2024-03-12T14:54:25.382Z,31.83
2024-03-12T14:59:03.385Z,36.67
2024-03-12T15:03:42.437Z,35.50
2024-03-12T15:08:22.379Z,35.07
2024-03-12T15:13:03.421Z,35.10
2024-03-12T15:17:41.886Z,36.80
2024-03-12T15:22:20.466Z,39.57
2024-03-12T15:26:59.382Z,38.97
2024-03-12T15:31:41.390Z,40.10
2024-03-12T15:36:20.362Z,41.83
2024-03-12T15:40:58.365Z,35.93
2024-03-12T15:45:37.387Z,38.07
2024-03-12T15:50:19.392Z,42.13
2024-03-12T15:54:58.404Z,37.90
2024-03-12T15:59:37.361Z,37.77
2024-03-12T16:04:15.668Z,43.33
2024-03-12T16:08:58.348Z,36.33
2024-03-12T16:13:37.409Z,44.00
2024-03-12T16:18:15.403Z,37.67
2024-03-12T16:22:53.360Z,37.40
2024-03-12T16:27:35.399Z,40.27
2024-03-12T16:32:26.426Z,40.00
2024-03-12T16:37:04.394Z,43.50
2024-03-12T16:41:42.344Z,41.13
2024-03-12T16:46:24.382Z,42.27
2024-03-12T16:51:02.350Z,39.27
2024-03-12T16:55:41.338Z,38.00
2024-03-12T17:00:21.360Z,41.90
2024-03-12T17:05:04.332Z,44.50
2024-03-12T17:09:44.381Z,46.87
2024-03-12T17:14:30.344Z,40.63
2024-03-12T17:19:14.453Z,40.50
2024-03-12T17:23:55.353Z,40.30
2024-03-12T17:28:35.351Z,42.27
2024-03-12T17:33:15.405Z,44.00
2024-03-12T17:37:56.341Z,44.33
2024-03-12T17:42:37.388Z,46.77
2024-03-12T17:47:19.346Z,51.50
2024-03-12T17:51:59.366Z,48.17
2024-03-12T17:56:40.340Z,44.43
2024-03-12T18:01:23.449Z,52.10
2024-03-12T18:05:58.220Z,47.77
2024-03-12T18:10:35.370Z,47.17
2024-03-12T18:15:13.508Z,45.43
2024-03-12T18:19:55.337Z,43.03
2024-03-12T18:24:33.332Z,45.37
2024-03-12T18:29:11.335Z,43.43
2024-03-12T18:33:49.393Z,52.93
2024-03-12T18:38:32.333Z,49.80
2024-03-12T18:43:11.344Z,53.53
2024-03-12T18:47:50.489Z,50.97
2024-03-12T18:52:23.339Z,49.07
2024-03-12T18:57:04.315Z,49.47
2024-03-12T19:01:43.488Z,45.97
2024-03-12T19:06:27.317Z,51.10
2024-03-12T19:11:06.338Z,51.67
2024-03-12T19:15:44.438Z,47.73
2024-03-12T19:20:26.412Z,53.80
2024-03-12T19:25:04.387Z,51.23
2024-03-12T19:29:42.325Z,49.27
2024-03-12T19:34:25.420Z,48.87
2024-03-12T19:39:05.379Z,57.63
2024-03-12T19:43:38.203Z,53.60
2024-03-12T19:48:10.354Z,53.20
2024-03-12T19:52:54.362Z,53.10
2024-03-12T19:57:32.308Z,52.57
2024-03-12T20:02:12.405Z,53.20
2024-03-12T20:06:50.344Z,52.17
2024-03-12T20:11:32.548Z,53.70
2024-03-12T20:16:10.357Z,51.40
2024-03-12T20:20:50.366Z,50.30
2024-03-12T20:25:29.361Z,56.43
2024-03-12T20:30:11.305Z,55.50
2024-03-12T20:34:50.330Z,53.40
2024-03-12T20:39:32.343Z,59.03
2024-03-12T20:44:10.341Z,57.93
2024-03-12T20:48:52.354Z,54.73
2024-03-12T20:53:30.321Z,48.47
2024-03-12T20:58:08.456Z,53.27
2024-03-12T21:02:46.419Z,53.87
2024-03-12T21:07:27.354Z,56.33
2024-03-12T21:12:05.349Z,49.47
2024-03-12T21:16:43.331Z,59.43
2024-03-12T21:21:23.319Z,54.60
2024-03-12T21:26:04.304Z,57.83
2024-03-12T21:30:44.406Z,56.07
2024-03-12T21:35:23.290Z,59.17
2024-03-12T21:40:01.350Z,55.10
2024-03-12T21:44:44.301Z,55.20
2024-03-12T21:49:23.339Z,52.83
2024-03-12T21:54:06.088Z,57.60
2024-03-12T21:58:46.304Z,52.70
2024-03-12T22:03:27.313Z,62.27
2024-03-12T22:08:05.293Z,48.83
2024-03-12T22:12:43.410Z,55.43
2024-03-12T22:17:16.293Z,51.67
2024-03-12T22:21:58.327Z,52.90
2024-03-12T22:26:37.306Z,55.00
2024-03-12T22:31:16.407Z,47.53
2024-03-12T22:35:54.295Z,45.33
2024-03-12T22:40:35.285Z,45.20
2024-03-12T22:45:14.293Z,50.13
2024-03-12T22:49:53.295Z,45.87
2024-03-12T22:54:32.310Z,53.00
2024-03-12T22:59:14.283Z,47.20
2024-03-12T23:03:54.333Z,44.73
2024-03-12T23:08:36.309Z,49.00
2024-03-12T23:13:14.406Z,39.73
2024-03-12T23:17:56.293Z,47.00
2024-03-12T23:22:35.324Z,47.70
2024-03-12T23:27:13.294Z,48.50
2024-03-12T23:31:51.354Z,42.90
2024-03-12T23:36:35.291Z,40.43
2024-03-12T23:41:13.280Z,43.17
2024-03-12T23:45:51.327Z,45.17
2024-03-12T23:50:29.273Z,53.27
2024-03-12T23:55:11.343Z,43.43
2024-03-12T23:59:52.283Z,42.10
